createdAt,value
2019-02-05T00:03:07.999Z,10.37
2019-02-05T00:08:11.749Z,11.60
2019-02-05T00:13:15.570Z,9.57
2019-02-05T00:18:19.545Z,9.83
2019-02-05T00:23:23.238Z,11.13
2019-02-05T00:28:27.395Z,8.57
2019-02-05T00:33:31.153Z,11.83
2019-02-05T00:38:34.834Z,9.33
2019-02-05T00:43:38.509Z,9.77
2019-02-05T00:48:42.343Z,10.13
2019-02-05T00:53:46.419Z,9.20
2019-02-05T00:58:50.090Z,8.57
2019-02-05T01:03:53.833Z,10.57
2019-02-05T01:08:57.577Z,9.70
2019-02-05T01:14:01.611Z,8.73
2019-02-05T01:19:05.522Z,8.30
2019-02-05T01:24:09.206Z,9.57
2019-02-05T01:29:13.359Z,8.30
2019-02-05T01:34:17.029Z,9.67
2019-02-05T01:39:20.710Z,7.33
2019-02-05T01:44:24.382Z,8.93
2019-02-05T01:49:28.059Z,8.27
2019-02-05T01:54:32.003Z,6.77
2019-02-05T01:59:35.674Z,8.30
2019-02-05T02:04:39.358Z,9.57
2019-02-05T02:09:43.025Z,7.60
2019-02-05T02:14:46.701Z,8.00
2019-02-05T02:19:50.378Z,7.23
2019-02-05T02:24:54.067Z,8.70
2019-02-05T02:29:57.750Z,7.80
2019-02-05T02:35:01.450Z,7.70
2019-02-05T02:40:05.603Z,8.37
2019-02-05T02:45:11.142Z,8.30
2019-02-05T02:50:15.931Z,7.17
2019-02-05T02:55:20.458Z,7.97
2019-02-05T03:00:24.495Z,9.33
2019-02-05T03:05:28.259Z,8.13
2019-02-05T03:10:32.368Z,7.93
2019-02-05T03:15:36.131Z,7.60
2019-02-05T03:20:39.821Z,8.30
2019-02-05T03:25:43.662Z,7.60
2019-02-05T03:30:47.352Z,8.27
2019-02-05T03:35:51.115Z,7.27
2019-02-05T03:41:12.266Z,8.40
2019-02-05T03:46:18.484Z,6.33
2019-02-05T03:52:03.609Z,7.37
2019-02-05T03:57:37.533Z,8.27
2019-02-05T04:03:23.730Z,7.60
2019-02-05T04:09:36.158Z,8.03
2019-02-05T04:15:19.012Z,7.37
2019-02-05T04:20:54.095Z,9.00
2019-02-05T04:26:10.544Z,8.17
2019-02-05T04:31:42.683Z,8.23
2019-02-05T04:37:39.923Z,7.63
2019-02-05T04:43:25.219Z,8.90
2019-02-05T04:49:22.313Z,8.27
2019-02-05T04:54:57.119Z,7.70
2019-02-05T05:00:33.393Z,9.07
2019-02-05T05:06:15.776Z,6.90
2019-02-05T05:11:19.453Z,7.87
2019-02-05T05:16:23.220Z,7.37
2019-02-05T05:21:27.507Z,7.70
2019-02-05T05:26:31.630Z,6.90
2019-02-05T05:31:35.463Z,8.27
2019-02-05T05:36:49.089Z,7.00
2019-02-05T05:41:52.799Z,7.93
2019-02-05T05:46:56.574Z,7.10
2019-02-05T05:52:00.530Z,9.43
2019-02-05T05:57:04.480Z,8.37
2019-02-05T06:02:08.174Z,8.37
2019-02-05T06:07:11.943Z,8.57
2019-02-05T06:12:15.707Z,8.93
2019-02-05T06:17:19.392Z,7.10
2019-02-05T06:22:23.159Z,9.90
2019-02-05T06:27:26.841Z,6.93
2019-02-05T06:32:30.616Z,9.67
2019-02-05T06:37:34.383Z,8.47
2019-02-05T06:42:38.166Z,7.50
2019-02-05T06:47:42.000Z,8.10
2019-02-05T06:52:45.772Z,7.87
2019-02-05T06:57:49.804Z,8.03
2019-02-05T07:02:53.713Z,8.37
2019-02-05T07:07:57.664Z,8.60
2019-02-05T07:13:01.466Z,8.23
2019-02-05T07:18:05.645Z,9.07
2019-02-05T07:23:11.222Z,8.57
2019-02-05T07:28:14.994Z,9.20
2019-02-05T07:33:18.774Z,8.13
2019-02-05T07:38:22.543Z,8.67
2019-02-05T07:43:26.342Z,10.57
2019-02-05T07:48:30.671Z,8.97
2019-02-05T07:53:34.703Z,6.97
2019-02-05T07:58:38.763Z,9.37
2019-02-05T08:03:42.743Z,9.57
2019-02-05T08:08:46.431Z,10.60
2019-02-05T08:13:50.190Z,10.23
2019-02-05T08:18:54.292Z,12.70
2019-02-05T08:23:58.111Z,11.07
2019-02-05T08:29:02.017Z,9.33
2019-02-05T08:34:06.244Z,10.20
2019-02-05T08:39:10.570Z,12.83
2019-02-05T08:44:14.285Z,9.57
2019-02-05T08:49:18.058Z,10.80
2019-02-05T08:54:21.915Z,14.33
2019-02-05T08:59:25.678Z,14.07
2019-02-05T09:04:29.811Z,19.93
2019-02-05T09:09:33.578Z,19.47
2019-02-05T09:14:38.083Z,16.63
2019-02-05T09:19:41.786Z,14.67
2019-02-05T09:24:45.566Z,20.37
2019-02-05T09:29:49.336Z,12.87
2019-02-05T09:34:53.104Z,11.93
2019-02-05T09:39:56.870Z,28.43
2019-02-05T09:45:00.731Z,14.13
2019-02-05T09:50:06.562Z,15.50
2019-02-05T09:55:11.819Z,14.57
2019-02-05T10:00:21.170Z,14.57
2019-02-05T10:05:25.795Z,14.60
2019-02-05T10:10:29.622Z,11.87
2019-02-05T10:15:34.635Z,19.77
2019-02-05T10:20:38.812Z,14.53
2019-02-05T10:25:43.075Z,15.50
2019-02-05T10:30:47.042Z,13.30
2019-02-05T10:35:50.951Z,14.43
2019-02-05T10:40:55.170Z,14.60
2019-02-05T10:45:59.312Z,12.23
2019-02-05T10:51:03.159Z,12.17
2019-02-05T10:56:06.979Z,12.30
2019-02-05T11:01:10.794Z,13.53
2019-02-05T11:06:14.751Z,13.80
2019-02-05T11:11:18.447Z,11.57
2019-02-05T11:16:22.298Z,17.30
2019-02-05T11:21:26.066Z,16.60
2019-02-05T11:26:30.138Z,15.73
2019-02-05T11:31:33.918Z,13.80
2019-02-05T11:36:37.673Z,14.83
2019-02-05T11:41:41.666Z,15.50
2019-02-05T11:46:45.439Z,14.57
2019-02-05T11:51:49.225Z,16.63
2019-02-05T11:56:52.998Z,20.17
2019-02-05T12:01:56.771Z,15.80
2019-02-05T12:07:00.858Z,13.23
2019-02-05T12:12:04.707Z,12.23
2019-02-05T12:17:08.471Z,12.53
2019-02-05T12:22:12.248Z,12.33
2019-02-05T12:27:16.286Z,13.77
2019-02-05T12:32:19.975Z,12.17
2019-02-05T12:37:23.771Z,14.23
2019-02-05T12:42:27.546Z,13.53
2019-02-05T12:47:31.746Z,13.93
2019-02-05T12:52:36.127Z,13.73
2019-02-05T12:57:40.669Z,12.17
2019-02-05T13:02:44.466Z,12.00
2019-02-05T13:07:48.175Z,14.23
2019-02-05T13:12:52.407Z,14.73
2019-02-05T13:17:56.232Z,17.73
2019-02-05T13:23:00.675Z,15.47
2019-02-05T13:28:06.099Z,16.63
2019-02-05T13:33:10.595Z,14.93
2019-02-05T13:38:14.364Z,13.40
2019-02-05T13:43:18.353Z,13.13
2019-02-05T13:48:22.115Z,16.07
2019-02-05T13:53:25.899Z,14.87
2019-02-05T13:58:31.068Z,15.00
2019-02-05T14:03:34.810Z,16.63
2019-02-05T14:08:38.538Z,17.73
2019-02-05T14:13:42.339Z,20.43
2019-02-05T14:18:54.994Z,24.17
2019-02-05T14:23:52.407Z,20.70
2019-02-05T14:28:56.623Z,18.90
2019-02-05T14:34:00.347Z,22.93
2019-02-05T14:39:07.796Z,32.80
2019-02-05T14:44:11.644Z,25.57
2019-02-05T14:49:15.344Z,33.03
2019-02-05T14:54:19.051Z,20.53
2019-02-05T14:59:23.183Z,26.03
2019-02-05T15:04:27.227Z,17.67
2019-02-05T15:09:30.986Z,15.00
2019-02-05T15:14:34.691Z,15.93
2019-02-05T15:19:38.794Z,16.33
2019-02-05T15:24:42.535Z,15.27
2019-02-05T15:29:46.264Z,15.33
2019-02-05T15:34:50.307Z,16.77
2019-02-05T15:39:54.820Z,16.60
2019-02-05T15:44:58.963Z,17.70
2019-02-05T15:50:05.976Z,15.40
2019-02-05T15:55:08.863Z,16.53
2019-02-05T16:00:14.466Z,16.27
2019-02-05T16:05:18.391Z,14.00
2019-02-05T16:10:22.131Z,15.97
2019-02-05T16:15:26.196Z,16.07
2019-02-05T16:20:29.918Z,17.73
2019-02-05T16:25:33.939Z,16.67
2019-02-05T16:30:38.039Z,18.13
2019-02-05T16:35:41.826Z,21.70
2019-02-05T16:40:45.598Z,20.27
2019-02-05T16:45:49.372Z,19.67
2019-02-05T16:50:53.698Z,21.03
2019-02-05T16:55:57.789Z,18.90
2019-02-05T17:01:02.824Z,19.03
2019-02-05T17:06:06.987Z,18.30
2019-02-05T17:11:10.878Z,19.50
2019-02-05T17:16:14.639Z,22.10
2019-02-05T17:21:18.435Z,19.10
2019-02-05T17:26:22.142Z,18.50
2019-02-05T17:31:26.439Z,18.53
2019-02-05T17:36:30.286Z,16.67
2019-02-05T17:41:34.076Z,14.97
2019-02-05T17:46:38.758Z,17.33
2019-02-05T17:51:42.620Z,17.13
2019-02-05T17:56:46.684Z,16.47
2019-02-05T18:01:50.383Z,20.47
2019-02-05T18:06:54.128Z,32.13
2019-02-05T18:11:57.884Z,34.10
2019-02-05T18:17:01.634Z,42.73
2019-02-05T18:22:08.043Z,35.87
2019-02-05T18:27:12.810Z,35.53
2019-02-05T18:32:16.814Z,23.17
2019-02-05T18:37:20.781Z,24.23
2019-02-05T18:42:24.808Z,17.30
2019-02-05T18:47:29.472Z,16.87
2019-02-05T18:52:33.971Z,14.57
2019-02-05T18:57:38.596Z,15.00
2019-02-05T19:02:43.433Z,15.33
2019-02-05T19:07:47.877Z,15.70
2019-02-05T19:12:52.148Z,15.27
2019-02-05T19:17:58.338Z,15.67
2019-02-05T19:23:02.897Z,18.40
2019-02-05T19:28:07.182Z,18.40
2019-02-05T19:33:11.358Z,14.83
2019-02-05T19:38:15.253Z,16.27
2019-02-05T19:43:19.373Z,15.67
2019-02-05T19:48:29.563Z,18.37
2019-02-05T19:53:34.282Z,55.53
2019-02-05T19:58:39.874Z,47.33
2019-02-05T20:03:44.255Z,25.20
2019-02-05T20:08:51.711Z,19.27
2019-02-05T20:13:58.193Z,18.43
2019-02-05T20:19:01.590Z,17.47
2019-02-05T20:24:05.561Z,17.70
2019-02-05T20:29:09.463Z,18.33
2019-02-05T20:34:13.266Z,16.83
2019-02-05T20:39:18.448Z,17.97
2019-02-05T20:44:22.556Z,17.17
2019-02-05T20:49:26.294Z,17.40
2019-02-05T20:54:30.067Z,17.83
2019-02-05T20:59:33.750Z,18.83
2019-02-05T21:04:48.088Z,17.53
2019-02-05T21:09:42.957Z,19.87
2019-02-05T21:14:46.723Z,17.40
2019-02-05T21:19:50.695Z,17.40
2019-02-05T21:24:54.400Z,20.33
2019-02-05T21:29:58.085Z,18.33
2019-02-05T21:35:01.779Z,18.60
2019-02-05T21:40:07.775Z,18.93
2019-02-05T21:45:14.367Z,19.17
2019-02-05T21:50:21.753Z,18.50
2019-02-05T21:55:25.634Z,18.07
2019-02-05T22:00:30.585Z,20.47
2019-02-05T22:05:34.457Z,19.60
2019-02-05T22:10:38.446Z,20.23
2019-02-05T22:15:42.509Z,19.50
2019-02-05T22:20:46.274Z,19.77
2019-02-05T22:25:50.357Z,20.63
2019-02-05T22:30:54.134Z,19.50
2019-02-05T22:35:57.975Z,23.67
2019-02-05T22:41:01.747Z,21.50
2019-02-05T22:46:05.678Z,23.23
2019-02-05T22:51:09.844Z,26.87
2019-02-05T22:56:13.630Z,22.83
2019-02-05T23:01:47.771Z,20.53
2019-02-05T23:07:19.875Z,23.80
2019-02-05T23:12:33.250Z,22.73
2019-02-05T23:17:37.097Z,21.57
2019-02-05T23:22:40.932Z,24.70
2019-02-05T23:27:44.920Z,21.53
2019-02-05T23:32:48.690Z,24.60
2019-02-05T23:37:52.461Z,23.43
2019-02-05T23:42:56.369Z,25.13
2019-02-05T23:48:00.138Z,23.30
2019-02-05T23:53:04.502Z,22.43
2019-02-05T23:58:08.272Z,23.60
